createdAt,value
2018-03-23T00:00:49.972Z,17.00
2018-03-23T00:01:54.915Z,11.00
2018-03-23T00:02:59.818Z,7.50
2018-03-23T00:04:04.729Z,16.00
2018-03-23T00:05:09.549Z,10.50
2018-03-23T00:06:14.909Z,11.00
2018-03-23T00:07:19.893Z,13.00
2018-03-23T00:08:24.792Z,15.50
2018-03-23T00:09:29.621Z,9.50
2018-03-23T00:10:34.375Z,9.00
2018-03-23T00:11:39.430Z,15.50
2018-03-23T00:12:44.437Z,13.00
2018-03-23T00:13:49.509Z,12.00
2018-03-23T00:14:54.567Z,11.00
2018-03-23T00:16:00.323Z,18.50
2018-03-23T00:17:06.065Z,14.50
2018-03-23T00:18:11.038Z,17.50
2018-03-23T00:19:16.355Z,17.50
2018-03-23T00:20:21.210Z,15.50
2018-03-23T00:21:26.161Z,10.00
2018-03-23T00:22:31.991Z,12.00
2018-03-23T00:23:36.917Z,16.50
2018-03-23T00:24:41.964Z,11.50
2018-03-23T00:25:47.294Z,12.00
2018-03-23T00:26:52.453Z,11.50
2018-03-23T00:27:57.446Z,13.50
2018-03-23T00:29:02.446Z,19.50
2018-03-23T00:30:08.335Z,16.50
2018-03-23T00:31:13.330Z,12.00
2018-03-23T00:32:18.593Z,14.00
2018-03-23T00:33:23.652Z,17.50
2018-03-23T00:34:28.512Z,12.00
2018-03-23T00:35:33.358Z,14.50
2018-03-23T00:36:38.290Z,15.00
2018-03-23T00:37:43.608Z,12.50
2018-03-23T00:38:48.582Z,13.00
2018-03-23T00:39:53.913Z,15.00
2018-03-23T00:40:59.088Z,14.00
2018-03-23T00:42:05.011Z,12.00
2018-03-23T00:43:10.229Z,15.50
2018-03-23T00:44:15.613Z,12.00
2018-03-23T00:45:21.171Z,15.00
2018-03-23T00:46:26.444Z,13.00
2018-03-23T00:47:31.503Z,13.00
2018-03-23T00:48:36.528Z,12.50
2018-03-23T00:49:41.390Z,14.00
2018-03-23T00:50:46.979Z,11.00
2018-03-23T00:51:52.222Z,14.50
2018-03-23T00:52:57.666Z,14.50
2018-03-23T00:54:02.906Z,12.00
2018-03-23T00:55:07.928Z,9.50
2018-03-23T00:56:13.204Z,10.00
2018-03-23T00:57:19.761Z,11.00
2018-03-23T00:58:24.850Z,11.50
2018-03-23T00:59:30.105Z,13.00
2018-03-23T01:00:35.602Z,18.50
2018-03-23T01:01:40.827Z,9.00
2018-03-23T01:02:46.143Z,11.00
2018-03-23T01:03:51.756Z,10.00
2018-03-23T01:04:56.796Z,16.00
2018-03-23T01:06:02.020Z,12.50
2018-03-23T01:07:07.186Z,13.50
2018-03-23T01:08:12.402Z,19.00
2018-03-23T01:09:17.740Z,9.50
2018-03-23T01:10:23.063Z,12.00
2018-03-23T01:11:28.310Z,12.00
2018-03-23T01:12:33.355Z,11.50
2018-03-23T01:13:38.477Z,11.50
2018-03-23T01:14:43.310Z,16.50
2018-03-23T01:15:48.682Z,18.50
2018-03-23T01:16:54.298Z,16.00
2018-03-23T01:17:59.416Z,10.00
2018-03-23T01:19:05.119Z,14.00
2018-03-23T01:20:10.429Z,13.50
2018-03-23T01:21:15.885Z,10.50
2018-03-23T01:22:20.798Z,12.00
2018-03-23T01:23:25.836Z,10.50
2018-03-23T01:24:31.203Z,12.00
2018-03-23T01:25:36.393Z,13.50
2018-03-23T01:26:41.406Z,17.50
2018-03-23T01:27:46.596Z,15.50
2018-03-23T01:28:51.860Z,14.00
2018-03-23T01:29:57.437Z,13.50
2018-03-23T01:31:04.122Z,15.50
2018-03-23T01:32:10.281Z,14.00
2018-03-23T01:33:15.277Z,10.00
2018-03-23T01:34:20.392Z,15.50
2018-03-23T01:35:25.461Z,14.50
2018-03-23T01:36:31.003Z,12.50
2018-03-23T01:37:36.228Z,13.50
2018-03-23T01:38:41.413Z,14.50
2018-03-23T01:39:46.652Z,9.00
2018-03-23T01:40:51.950Z,8.50
2018-03-23T01:41:57.061Z,9.00
2018-03-23T01:43:02.601Z,12.50
2018-03-23T01:44:08.573Z,10.00
2018-03-23T01:45:15.913Z,13.00
2018-03-23T01:46:21.020Z,11.00
2018-03-23T01:47:26.359Z,12.00
2018-03-23T01:48:31.537Z,8.50
2018-03-23T01:49:36.821Z,10.50
2018-03-23T01:50:41.930Z,15.00
2018-03-23T01:51:46.904Z,10.00
2018-03-23T01:52:52.166Z,8.00
2018-03-23T01:53:57.518Z,10.00
2018-03-23T01:55:02.743Z,9.00
2018-03-23T01:56:07.915Z,5.50
2018-03-23T01:57:13.130Z,10.00
2018-03-23T01:58:18.419Z,5.00
2018-03-23T01:59:23.817Z,8.00
2018-03-23T02:00:29.491Z,14.50
2018-03-23T02:01:34.564Z,13.00
2018-03-23T02:02:40.298Z,11.50
2018-03-23T02:03:45.290Z,8.00
2018-03-23T02:04:50.497Z,8.50
2018-03-23T02:05:55.650Z,8.00
2018-03-23T02:07:00.720Z,11.50
2018-03-23T02:08:06.036Z,6.00
2018-03-23T02:09:11.146Z,6.00
2018-03-23T02:10:16.361Z,8.00
2018-03-23T02:11:21.406Z,11.50
2018-03-23T02:12:26.656Z,9.00
2018-03-23T02:13:31.865Z,8.00
2018-03-23T02:14:36.918Z,8.50
2018-03-23T02:15:42.762Z,16.00
2018-03-23T02:16:48.032Z,12.50
2018-03-23T02:17:53.158Z,11.50
2018-03-23T02:18:58.395Z,12.00
2018-03-23T02:20:04.507Z,13.50
2018-03-23T02:21:10.377Z,13.00
2018-03-23T02:22:15.505Z,12.00
2018-03-23T02:23:20.055Z,9.50
2018-03-23T02:24:25.110Z,11.50
2018-03-23T02:25:29.778Z,11.50
2018-03-23T02:26:34.952Z,16.00
2018-03-23T02:27:39.882Z,11.00
2018-03-23T02:28:44.435Z,11.00
2018-03-23T02:29:49.627Z,11.00
2018-03-23T02:30:55.554Z,12.00
2018-03-23T02:32:00.420Z,14.00
2018-03-23T02:33:05.199Z,9.00
2018-03-23T02:34:09.930Z,9.50
2018-03-23T02:35:14.865Z,9.50
2018-03-23T02:36:19.826Z,11.50
2018-03-23T02:37:24.917Z,13.00
2018-03-23T02:38:29.644Z,6.00
2018-03-23T02:39:34.840Z,15.00
2018-03-23T02:40:39.758Z,7.50
2018-03-23T02:41:44.968Z,9.50
2018-03-23T02:42:49.544Z,12.00
2018-03-23T02:43:54.236Z,12.50
2018-03-23T02:44:59.086Z,11.50
2018-03-23T02:46:04.432Z,10.00
2018-03-23T02:47:09.903Z,10.50
2018-03-23T02:48:15.538Z,9.50
2018-03-23T02:49:21.251Z,10.00
2018-03-23T02:50:26.662Z,13.00
2018-03-23T02:51:31.942Z,16.00
2018-03-23T02:52:38.234Z,11.50
2018-03-23T02:53:43.379Z,11.00
2018-03-23T02:54:48.384Z,10.50
2018-03-23T02:55:53.813Z,17.00
2018-03-23T02:56:58.543Z,5.00
2018-03-23T02:58:03.427Z,8.50
2018-03-23T02:59:09.940Z,10.00
2018-03-23T03:00:17.243Z,12.00
2018-03-23T03:01:22.863Z,11.50
2018-03-23T03:02:27.681Z,8.00
2018-03-23T03:03:32.364Z,11.00
2018-03-23T03:04:37.440Z,11.50
2018-03-23T03:05:43.916Z,12.00
2018-03-23T03:06:48.649Z,13.50
2018-03-23T03:07:53.767Z,15.00
2018-03-23T03:08:58.500Z,11.50
2018-03-23T03:10:04.508Z,12.50
2018-03-23T03:11:10.365Z,6.00
2018-03-23T03:12:15.397Z,14.00
2018-03-23T03:13:20.255Z,16.50
2018-03-23T03:14:25.358Z,9.00
2018-03-23T03:15:30.489Z,13.50
2018-03-23T03:16:35.566Z,13.00
2018-03-23T03:17:40.307Z,9.00
2018-03-23T03:18:45.455Z,11.50
2018-03-23T03:19:50.353Z,10.50
2018-03-23T03:20:54.980Z,14.00
2018-03-23T03:21:59.907Z,7.50
2018-03-23T03:23:04.722Z,10.50
2018-03-23T03:24:09.532Z,10.00
2018-03-23T03:25:14.607Z,11.00
2018-03-23T03:26:19.141Z,8.00
2018-03-23T03:27:23.788Z,9.50
2018-03-23T03:28:28.446Z,6.00
2018-03-23T03:29:32.961Z,8.00
2018-03-23T03:30:38.079Z,10.50
2018-03-23T03:31:42.541Z,12.50
2018-03-23T03:32:47.069Z,8.00
2018-03-23T03:33:51.796Z,12.00
2018-03-23T03:34:56.496Z,9.50
2018-03-23T03:36:01.117Z,9.50
2018-03-23T03:37:06.816Z,10.00
2018-03-23T03:38:11.546Z,15.00
2018-03-23T03:39:16.081Z,11.50
2018-03-23T03:40:21.381Z,21.50
2018-03-23T03:41:25.850Z,12.50
2018-03-23T03:42:30.258Z,14.00
2018-03-23T03:43:35.030Z,12.50
2018-03-23T03:44:39.337Z,12.00
2018-03-23T03:45:44.068Z,20.50
2018-03-23T03:46:48.568Z,10.50
2018-03-23T03:47:53.186Z,8.50
2018-03-23T03:48:57.558Z,14.50
2018-03-23T03:50:02.215Z,15.00
2018-03-23T03:51:06.695Z,10.50
2018-03-23T03:52:11.145Z,10.50
2018-03-23T03:53:15.947Z,10.00
2018-03-23T03:54:20.735Z,8.00
2018-03-23T03:55:25.151Z,6.50
2018-03-23T03:56:30.040Z,13.00
2018-03-23T03:57:34.549Z,10.00
2018-03-23T03:58:39.011Z,10.50
2018-03-23T03:59:43.594Z,11.50
2018-03-23T04:00:48.158Z,17.00
2018-03-23T04:01:52.790Z,13.00
2018-03-23T04:02:57.824Z,12.50
2018-03-23T04:04:02.561Z,11.50
2018-03-23T04:05:07.262Z,10.00
2018-03-23T04:06:11.780Z,11.50
2018-03-23T04:07:17.024Z,14.50
2018-03-23T04:08:21.409Z,14.50
2018-03-23T04:09:26.236Z,12.50
2018-03-23T04:10:30.910Z,12.00
2018-03-23T04:11:35.484Z,8.50
2018-03-23T04:12:40.133Z,16.50
2018-03-23T04:13:44.564Z,11.00
2018-03-23T04:14:49.511Z,12.50
2018-03-23T04:15:54.627Z,16.00
2018-03-23T04:16:59.230Z,9.50
2018-03-23T04:18:04.028Z,16.00
2018-03-23T04:19:08.666Z,12.00
2018-03-23T04:20:13.716Z,14.00
2018-03-23T04:21:19.632Z,13.00
2018-03-23T04:22:24.180Z,15.00
2018-03-23T04:23:29.107Z,16.00
2018-03-23T04:24:33.882Z,16.00
2018-03-23T04:25:38.337Z,10.50
2018-03-23T04:26:43.508Z,13.50
2018-03-23T04:27:48.430Z,10.50
2018-03-23T04:28:52.986Z,19.00
2018-03-23T04:29:57.574Z,12.00
2018-03-23T04:31:02.390Z,14.00
2018-03-23T04:32:07.080Z,10.50
2018-03-23T04:33:12.003Z,18.00
2018-03-23T04:34:17.085Z,13.00
2018-03-23T04:35:21.993Z,11.50
2018-03-23T04:36:27.118Z,10.50
2018-03-23T04:37:32.354Z,9.00
2018-03-23T04:38:37.188Z,14.00
2018-03-23T04:39:41.958Z,10.00
2018-03-23T04:40:46.533Z,13.50
2018-03-23T04:41:50.903Z,14.00
2018-03-23T04:42:55.968Z,17.50
2018-03-23T04:44:00.625Z,8.50
2018-03-23T04:45:07.665Z,11.50
2018-03-23T04:46:12.689Z,17.50
2018-03-23T04:47:17.653Z,15.00
2018-03-23T04:48:22.212Z,11.00
2018-03-23T04:49:26.691Z,8.50
2018-03-23T04:50:32.069Z,20.00
2018-03-23T04:51:36.785Z,13.00
2018-03-23T04:52:41.520Z,11.50
2018-03-23T04:53:46.030Z,10.00
2018-03-23T04:54:50.550Z,14.00
2018-03-23T04:55:55.205Z,15.00
2018-03-23T04:56:59.622Z,18.50
2018-03-23T04:58:04.362Z,20.50
2018-03-23T04:59:08.896Z,22.50
2018-03-23T05:00:15.769Z,19.50
2018-03-23T05:01:21.424Z,12.00
2018-03-23T05:02:26.558Z,24.50
2018-03-23T05:03:32.606Z,15.50
2018-03-23T05:04:37.196Z,17.50
2018-03-23T05:05:41.587Z,16.00
2018-03-23T05:06:46.064Z,17.50
2018-03-23T05:07:50.813Z,17.00
2018-03-23T05:08:55.973Z,13.50
2018-03-23T05:10:01.415Z,19.00
2018-03-23T05:11:06.253Z,18.50
2018-03-23T05:12:11.947Z,18.50
2018-03-23T05:13:17.134Z,15.00
2018-03-23T05:14:23.624Z,23.00
2018-03-23T05:15:29.810Z,22.00
2018-03-23T05:16:35.093Z,17.50
2018-03-23T05:17:40.120Z,15.50
2018-03-23T05:18:45.163Z,16.00
2018-03-23T05:19:50.343Z,23.00
2018-03-23T05:20:55.036Z,10.50
2018-03-23T05:22:01.242Z,15.00
2018-03-23T05:23:05.930Z,13.00
2018-03-23T05:24:10.594Z,14.00
2018-03-23T05:25:15.323Z,13.00
2018-03-23T05:26:20.530Z,20.00
2018-03-23T05:27:25.288Z,12.00
2018-03-23T05:28:31.612Z,12.00
2018-03-23T05:29:36.542Z,20.50
2018-03-23T05:30:42.389Z,19.00
2018-03-23T05:31:47.535Z,18.50
2018-03-23T05:32:52.433Z,19.50
2018-03-23T05:33:57.470Z,18.50
2018-03-23T05:35:02.903Z,14.00
2018-03-23T05:36:07.753Z,14.50
2018-03-23T05:37:12.664Z,17.00
2018-03-23T05:38:17.550Z,14.50
2018-03-23T05:39:23.036Z,19.50
2018-03-23T05:40:28.134Z,11.50
2018-03-23T05:41:33.297Z,14.50
2018-03-23T05:42:38.434Z,16.00
2018-03-23T05:43:43.426Z,14.00
2018-03-23T05:44:48.716Z,10.00
2018-03-23T05:45:54.768Z,14.50
2018-03-23T05:47:00.700Z,12.00
2018-03-23T05:48:05.423Z,16.00
2018-03-23T05:49:10.388Z,13.50
2018-03-23T05:50:17.185Z,19.50
2018-03-23T05:51:22.149Z,12.50
2018-03-23T05:52:27.271Z,17.00
2018-03-23T05:53:32.741Z,17.50
2018-03-23T05:54:37.895Z,16.00
2018-03-23T05:55:43.042Z,16.50
2018-03-23T05:56:47.943Z,17.00
2018-03-23T05:57:53.422Z,16.00
2018-03-23T05:58:58.644Z,21.50
2018-03-23T06:00:05.575Z,21.00
2018-03-23T06:01:11.154Z,22.50
2018-03-23T06:02:16.253Z,17.50
2018-03-23T06:03:22.105Z,18.00
2018-03-23T06:04:27.252Z,24.00
2018-03-23T06:05:32.365Z,24.00
2018-03-23T06:06:37.420Z,22.00
2018-03-23T06:07:42.427Z,14.00
2018-03-23T06:08:47.308Z,16.00
2018-03-23T06:09:52.379Z,19.00
2018-03-23T06:10:57.614Z,22.00
2018-03-23T06:12:02.649Z,20.50
2018-03-23T06:13:08.130Z,21.00
2018-03-23T06:14:13.489Z,20.50
2018-03-23T06:15:19.149Z,29.50
2018-03-23T06:16:24.226Z,20.50
2018-03-23T06:17:29.272Z,21.50
2018-03-23T06:18:34.280Z,27.00
2018-03-23T06:19:39.740Z,24.50
2018-03-23T06:20:44.928Z,26.50
2018-03-23T06:21:50.098Z,29.50
2018-03-23T06:22:55.371Z,23.50
2018-03-23T06:24:00.579Z,16.50
2018-03-23T06:25:05.921Z,19.00
2018-03-23T06:26:10.989Z,20.00
2018-03-23T06:27:16.252Z,26.00
2018-03-23T06:28:23.169Z,17.50
2018-03-23T06:29:28.534Z,21.50
2018-03-23T06:30:34.170Z,24.00
2018-03-23T06:31:39.428Z,14.00
2018-03-23T06:32:44.448Z,16.00
2018-03-23T06:33:49.453Z,18.00
2018-03-23T06:34:54.572Z,21.50
2018-03-23T06:36:00.028Z,24.00
2018-03-23T06:37:05.245Z,19.50
2018-03-23T06:38:10.814Z,27.00
2018-03-23T06:39:16.216Z,17.50
2018-03-23T06:40:21.434Z,17.50
2018-03-23T06:41:26.473Z,17.50
2018-03-23T06:42:32.333Z,14.50
2018-03-23T06:43:37.497Z,15.00
2018-03-23T06:44:42.957Z,15.00
2018-03-23T06:45:48.298Z,29.00
2018-03-23T06:46:53.831Z,21.50
2018-03-23T06:47:59.075Z,23.50
2018-03-23T06:49:04.078Z,24.50
2018-03-23T06:50:09.458Z,22.50
2018-03-23T06:51:14.996Z,26.00
2018-03-23T06:52:20.319Z,22.50
2018-03-23T06:53:25.379Z,14.50
2018-03-23T06:55:39.494Z,26.50
2018-03-23T06:56:44.660Z,21.00
2018-03-23T06:57:50.102Z,23.00
2018-03-23T06:58:55.360Z,29.00
2018-03-23T07:00:00.351Z,18.00
2018-03-23T07:01:06.106Z,28.50
2018-03-23T07:02:10.990Z,18.50
2018-03-23T07:03:16.282Z,23.00
2018-03-23T07:04:21.879Z,28.00
2018-03-23T07:05:27.020Z,22.50
2018-03-23T07:06:32.308Z,18.00
2018-03-23T07:07:37.488Z,21.50
2018-03-23T07:08:42.592Z,20.50
2018-03-23T07:09:48.109Z,28.00
2018-03-23T07:10:53.431Z,20.50
2018-03-23T07:11:58.502Z,19.50
2018-03-23T07:13:03.852Z,11.00
2018-03-23T07:14:08.813Z,16.50
2018-03-23T07:15:16.847Z,16.00
2018-03-23T07:16:23.340Z,14.50
2018-03-23T07:17:28.403Z,23.50
2018-03-23T07:18:33.648Z,19.50
2018-03-23T07:19:38.775Z,23.50
2018-03-23T07:20:43.706Z,21.00
2018-03-23T07:21:48.911Z,16.00
2018-03-23T07:22:54.427Z,21.00
2018-03-23T07:23:59.446Z,26.00
2018-03-23T07:25:04.677Z,23.50
2018-03-23T07:26:09.925Z,19.00
2018-03-23T07:27:15.284Z,23.50
2018-03-23T07:28:20.662Z,17.50
2018-03-23T07:29:26.024Z,18.00
2018-03-23T07:30:31.450Z,24.50
2018-03-23T07:31:36.632Z,23.50
2018-03-23T07:32:41.895Z,27.50
2018-03-23T07:33:46.933Z,18.50
2018-03-23T07:34:52.442Z,18.00
2018-03-23T07:35:57.979Z,20.50
2018-03-23T07:37:03.228Z,19.50
2018-03-23T07:38:08.438Z,28.00
2018-03-23T07:39:13.764Z,17.50
2018-03-23T07:40:18.929Z,22.00
2018-03-23T07:41:24.424Z,20.00
2018-03-23T07:42:29.851Z,24.00
2018-03-23T07:43:35.069Z,27.50
2018-03-23T07:44:40.247Z,12.00
2018-03-23T07:45:46.304Z,17.00
2018-03-23T07:46:51.537Z,20.50
2018-03-23T07:47:57.180Z,22.00
2018-03-23T07:49:02.410Z,18.00
2018-03-23T07:50:07.637Z,18.00
2018-03-23T07:51:12.727Z,28.00
2018-03-23T07:52:18.406Z,17.50
2018-03-23T07:53:23.521Z,18.00
2018-03-23T07:54:29.094Z,13.00
2018-03-23T07:55:34.258Z,18.00
2018-03-23T07:56:39.574Z,24.00
2018-03-23T07:57:44.661Z,16.50
2018-03-23T07:58:49.776Z,11.50
2018-03-23T07:59:54.984Z,14.00
2018-03-23T08:01:00.201Z,21.50
2018-03-23T08:02:05.223Z,19.50
2018-03-23T08:08:28.739Z,17.00
2018-03-23T08:09:33.880Z,20.50
2018-03-23T08:10:38.849Z,17.00
2018-03-23T08:11:43.898Z,18.50
2018-03-23T08:12:48.800Z,18.50
2018-03-23T08:13:53.600Z,18.50
2018-03-23T08:14:59.066Z,16.50
2018-03-23T08:16:04.484Z,27.50
2018-03-23T08:17:09.545Z,22.50
2018-03-23T08:18:14.679Z,24.50
2018-03-23T08:19:20.346Z,25.00
2018-03-23T08:20:25.432Z,22.50
2018-03-23T08:21:30.851Z,21.50
2018-03-23T08:22:36.219Z,26.50
2018-03-23T08:23:41.544Z,26.00
2018-03-23T08:24:46.467Z,16.00
2018-03-23T08:25:51.470Z,20.50
2018-03-23T08:26:56.535Z,11.00
2018-03-23T08:28:01.796Z,12.50
2018-03-23T08:29:06.854Z,18.00
2018-03-23T08:30:13.350Z,9.00
2018-03-23T08:31:18.443Z,17.50
2018-03-23T08:32:23.456Z,14.00
2018-03-23T08:33:28.880Z,18.00
2018-03-23T08:34:34.333Z,17.50
2018-03-23T08:35:39.257Z,12.50
2018-03-23T08:36:44.233Z,13.00
2018-03-23T08:37:49.166Z,20.00
2018-03-23T08:38:54.294Z,15.50
2018-03-23T08:39:59.178Z,15.50
2018-03-23T08:41:04.507Z,16.00
2018-03-23T08:42:09.605Z,16.00
2018-03-23T08:43:14.502Z,13.50
2018-03-23T08:44:19.482Z,20.00
2018-03-23T08:45:25.691Z,26.00
2018-03-23T08:46:30.826Z,23.00
2018-03-23T08:47:36.124Z,17.50
2018-03-23T08:48:41.019Z,18.00
2018-03-23T08:49:46.196Z,18.00
2018-03-23T08:50:51.227Z,15.50
2018-03-23T08:51:56.589Z,25.50
2018-03-23T08:53:01.952Z,10.50
2018-03-23T08:54:07.251Z,17.50
2018-03-23T08:55:12.532Z,19.50
2018-03-23T08:56:17.498Z,19.50
2018-03-23T08:57:23.204Z,16.50
2018-03-23T08:58:28.174Z,18.50
2018-03-23T08:59:33.370Z,12.00
2018-03-23T09:00:38.902Z,25.50
2018-03-23T09:01:43.787Z,23.00
2018-03-23T09:02:48.789Z,13.00
2018-03-23T09:03:53.755Z,19.50
2018-03-23T09:04:58.855Z,20.00
2018-03-23T09:06:03.965Z,24.00
2018-03-23T09:07:09.144Z,17.00
2018-03-23T09:08:14.088Z,9.50
2018-03-23T09:09:19.240Z,16.00
2018-03-23T09:10:24.103Z,17.50
2018-03-23T09:11:28.994Z,12.50
2018-03-23T09:12:33.912Z,22.50
2018-03-23T09:13:38.989Z,17.50
2018-03-23T09:14:43.928Z,21.50
2018-03-23T09:15:49.130Z,10.50
2018-03-23T09:16:54.006Z,17.00
2018-03-23T09:17:58.743Z,10.50
2018-03-23T09:19:03.650Z,16.50
2018-03-23T09:20:08.855Z,20.00
2018-03-23T09:21:13.764Z,15.00
2018-03-23T09:22:19.324Z,15.00
2018-03-23T09:23:24.337Z,9.50
2018-03-23T09:24:29.210Z,13.50
2018-03-23T09:25:34.241Z,21.50
2018-03-23T09:26:39.221Z,19.00
2018-03-23T09:27:44.079Z,18.00
2018-03-23T09:28:49.086Z,17.50
2018-03-23T09:29:53.834Z,10.00
2018-03-23T09:30:59.105Z,29.00
2018-03-23T09:32:03.833Z,15.00
2018-03-23T09:33:08.710Z,16.00
2018-03-23T09:34:13.872Z,16.50
2018-03-23T09:35:19.231Z,19.50
2018-03-23T09:36:24.008Z,19.50
2018-03-23T09:37:29.812Z,26.00
2018-03-23T09:38:34.756Z,12.00
2018-03-23T09:39:39.763Z,18.50
2018-03-23T09:40:44.996Z,10.50
2018-03-23T09:41:49.768Z,29.00
2018-03-23T09:42:54.678Z,15.50
2018-03-23T09:43:59.563Z,20.00
2018-03-23T09:45:05.774Z,32.00
2018-03-23T09:46:11.215Z,28.50
2018-03-23T09:47:16.280Z,21.00
2018-03-23T09:48:22.308Z,24.00
2018-03-23T09:49:27.229Z,25.00
2018-03-23T09:50:32.224Z,17.50
2018-03-23T09:51:37.022Z,24.50
2018-03-23T09:52:41.911Z,19.50
2018-03-23T09:53:46.902Z,22.00
2018-03-23T09:54:51.641Z,31.00
2018-03-23T09:55:56.369Z,21.00
2018-03-23T09:57:01.191Z,38.00
2018-03-23T09:58:06.167Z,31.00
2018-03-23T09:59:11.148Z,31.50
2018-03-23T10:00:17.872Z,22.50
2018-03-23T10:01:23.547Z,27.00
2018-03-23T10:02:29.248Z,22.50
2018-03-23T10:03:34.035Z,23.00
2018-03-23T10:04:38.749Z,23.50
2018-03-23T10:05:43.739Z,16.50
2018-03-23T10:06:48.653Z,18.00
2018-03-23T10:07:53.419Z,16.50
2018-03-23T10:08:58.258Z,18.50
2018-03-23T10:10:03.032Z,32.00
2018-03-23T10:11:07.934Z,27.00
2018-03-23T10:12:13.203Z,23.00
2018-03-23T10:13:17.943Z,24.00
2018-03-23T10:14:23.583Z,18.50
2018-03-23T10:15:28.411Z,30.50
2018-03-23T10:16:33.241Z,27.50
2018-03-23T10:17:38.076Z,31.00
2018-03-23T10:18:43.292Z,28.00
2018-03-23T10:19:48.182Z,23.00
2018-03-23T10:20:53.255Z,29.50
2018-03-23T10:21:58.017Z,33.00
2018-03-23T10:23:02.766Z,30.00
2018-03-23T10:24:07.811Z,30.50
2018-03-23T10:25:12.498Z,26.00
2018-03-23T10:26:17.275Z,31.50
2018-03-23T10:27:22.154Z,33.00
2018-03-23T10:28:27.108Z,30.50
2018-03-23T10:29:32.020Z,23.50
2018-03-23T10:30:36.820Z,28.50
2018-03-23T10:31:41.678Z,35.00
2018-03-23T10:32:46.530Z,22.00
2018-03-23T10:33:51.392Z,33.00
2018-03-23T10:34:56.473Z,30.50
2018-03-23T10:36:01.125Z,33.00
2018-03-23T10:37:05.848Z,33.00
2018-03-23T10:38:10.449Z,29.00
2018-03-23T10:39:14.751Z,32.50
2018-03-23T10:40:19.761Z,27.50
2018-03-23T10:41:25.015Z,27.50
2018-03-23T10:42:29.731Z,37.00
2018-03-23T10:43:34.435Z,18.00
2018-03-23T10:44:39.203Z,30.00
2018-03-23T10:45:44.352Z,28.50
2018-03-23T10:46:49.341Z,28.00
2018-03-23T10:47:54.526Z,23.50
2018-03-23T10:48:59.416Z,33.00
2018-03-23T10:50:04.380Z,25.50
2018-03-23T10:51:09.362Z,42.50
2018-03-23T10:52:13.994Z,40.00
2018-03-23T10:53:19.354Z,37.50
2018-03-23T10:54:24.604Z,23.00
2018-03-23T10:55:29.807Z,31.00
2018-03-23T10:56:34.700Z,30.50
2018-03-23T10:57:39.489Z,27.00
2018-03-23T10:58:44.392Z,28.00
2018-03-23T10:59:49.034Z,33.00
2018-03-23T11:00:58.028Z,27.50
2018-03-23T11:02:06.659Z,31.00
2018-03-23T11:03:11.428Z,22.00
2018-03-23T11:04:16.513Z,37.00
2018-03-23T11:05:21.728Z,35.00
2018-03-23T11:06:27.059Z,21.00
2018-03-23T11:07:31.805Z,37.00
2018-03-23T11:08:37.077Z,31.00
2018-03-23T11:09:41.878Z,40.00
2018-03-23T11:10:46.586Z,32.00
2018-03-23T11:11:51.320Z,21.00
2018-03-23T11:12:56.279Z,39.00
2018-03-23T11:14:01.119Z,32.00
2018-03-23T11:15:06.985Z,27.50
2018-03-23T11:16:12.250Z,33.00
2018-03-23T11:17:17.016Z,29.50
2018-03-23T11:18:22.188Z,34.00
2018-03-23T11:19:27.197Z,31.00
2018-03-23T11:20:31.864Z,25.00
2018-03-23T11:21:36.689Z,24.00
2018-03-23T11:22:42.004Z,34.50
2018-03-23T11:23:47.692Z,31.50
2018-03-23T11:24:52.352Z,17.50
2018-03-23T11:25:57.061Z,31.00
2018-03-23T11:27:01.927Z,40.00
2018-03-23T11:28:13.028Z,33.00
2018-03-23T11:29:17.770Z,13.00
2018-03-23T11:30:22.790Z,63.00
2018-03-23T11:31:28.298Z,26.50
2018-03-23T11:32:32.953Z,33.50
2018-03-23T11:33:37.589Z,34.50
2018-03-23T11:34:42.495Z,38.00
2018-03-23T11:35:47.207Z,29.50
2018-03-23T11:36:52.042Z,29.00
2018-03-23T11:37:57.176Z,35.50
2018-03-23T11:39:01.831Z,36.50
2018-03-23T11:40:06.504Z,39.50
2018-03-23T11:41:11.322Z,35.50
2018-03-23T11:42:15.985Z,44.00
2018-03-23T11:43:20.573Z,38.50
2018-03-23T11:44:25.826Z,32.00
2018-03-23T11:45:31.187Z,39.50
2018-03-23T11:46:35.958Z,34.00
2018-03-23T11:47:41.507Z,26.00
2018-03-23T11:48:47.108Z,40.00
2018-03-23T11:49:51.911Z,43.50
2018-03-23T11:50:56.592Z,28.00
2018-03-23T11:52:01.366Z,35.50
2018-03-23T11:53:06.073Z,39.50
2018-03-23T11:54:10.860Z,32.50
2018-03-23T11:55:15.702Z,36.00
2018-03-23T11:56:20.404Z,27.50
2018-03-23T11:57:25.596Z,41.50
2018-03-23T11:58:30.594Z,32.00
2018-03-23T11:59:35.714Z,25.50
2018-03-23T12:00:40.889Z,42.50
2018-03-23T12:01:46.414Z,38.00
2018-03-23T12:02:51.540Z,37.50
2018-03-23T12:03:56.292Z,32.00
2018-03-23T12:05:01.077Z,24.00
2018-03-23T12:06:05.831Z,40.00
2018-03-23T12:07:10.674Z,38.00
2018-03-23T12:08:15.303Z,24.50
2018-03-23T12:09:20.270Z,35.50
2018-03-23T12:10:24.944Z,41.50
2018-03-23T12:11:30.192Z,43.50
2018-03-23T12:12:34.975Z,37.50
2018-03-23T12:13:39.675Z,39.50
2018-03-23T12:14:44.521Z,40.50
2018-03-23T12:15:49.232Z,34.00
2018-03-23T12:16:53.843Z,26.00
2018-03-23T12:17:58.487Z,35.50
2018-03-23T12:19:03.181Z,27.50
2018-03-23T12:20:07.957Z,33.00
2018-03-23T12:21:12.774Z,38.00
2018-03-23T12:22:17.729Z,35.00
2018-03-23T12:23:22.326Z,41.50
2018-03-23T12:24:27.188Z,31.50
2018-03-23T12:25:32.303Z,38.00
2018-03-23T12:26:37.038Z,40.00
2018-03-23T12:27:41.838Z,38.50
2018-03-23T12:28:46.740Z,39.50
2018-03-23T12:29:51.373Z,35.50
2018-03-23T12:30:56.208Z,41.50
2018-03-23T12:32:00.947Z,24.00
2018-03-23T12:33:05.704Z,31.50
2018-03-23T12:34:10.342Z,32.00
2018-03-23T12:35:15.296Z,33.00
2018-03-23T12:36:20.379Z,41.00
2018-03-23T12:37:25.252Z,22.00
2018-03-23T12:38:30.559Z,37.00
2018-03-23T12:39:35.814Z,30.00
2018-03-23T12:40:41.462Z,37.50
2018-03-23T12:41:46.133Z,24.50
2018-03-23T12:42:50.807Z,36.00
2018-03-23T12:43:55.668Z,28.50
2018-03-23T12:45:00.313Z,38.00
2018-03-23T12:46:05.862Z,47.00
2018-03-23T12:47:10.482Z,22.00
2018-03-23T12:48:15.331Z,40.00
2018-03-23T12:49:20.109Z,40.00
2018-03-23T12:50:24.942Z,34.00
2018-03-23T12:51:29.897Z,42.00
2018-03-23T12:52:35.110Z,26.50
2018-03-23T12:53:39.872Z,27.50
2018-03-23T12:54:45.228Z,30.00
2018-03-23T12:55:49.925Z,31.00
2018-03-23T12:56:54.719Z,33.50
2018-03-23T12:57:59.781Z,36.00
2018-03-23T12:59:04.590Z,21.00
2018-03-23T13:00:09.326Z,30.50
2018-03-23T13:01:14.076Z,41.50
2018-03-23T13:02:18.723Z,17.00
2018-03-23T13:03:23.595Z,26.50
2018-03-23T13:04:28.977Z,35.00
2018-03-23T13:05:33.821Z,40.00
2018-03-23T13:06:38.723Z,43.50
2018-03-23T13:07:44.112Z,41.50
2018-03-23T13:08:48.770Z,35.00
2018-03-23T13:09:53.438Z,40.50
2018-03-23T13:10:58.475Z,43.00
2018-03-23T13:12:03.136Z,39.50
2018-03-23T13:13:08.643Z,42.00
2018-03-23T13:14:13.287Z,40.00
2018-03-23T13:15:18.155Z,40.50
2018-03-23T13:16:23.246Z,40.50
2018-03-23T13:17:28.236Z,46.00
2018-03-23T13:18:33.152Z,35.00
2018-03-23T13:19:37.726Z,31.00
2018-03-23T13:20:43.178Z,36.50
2018-03-23T13:21:47.791Z,34.50
2018-03-23T13:22:55.434Z,38.00
2018-03-23T13:24:00.003Z,30.00
2018-03-23T13:25:04.742Z,37.00
2018-03-23T13:26:09.560Z,34.50
2018-03-23T13:27:14.298Z,39.50
2018-03-23T13:28:18.918Z,33.00
2018-03-23T13:29:24.007Z,39.50
2018-03-23T13:30:28.979Z,45.50
2018-03-23T13:31:34.013Z,29.50
2018-03-23T13:32:38.714Z,43.00
2018-03-23T13:33:43.418Z,33.00
2018-03-23T13:34:48.096Z,41.00
2018-03-23T13:35:53.128Z,39.00
2018-03-23T13:36:57.994Z,39.50
2018-03-23T13:38:02.691Z,35.50
2018-03-23T13:39:07.454Z,39.50
2018-03-23T13:40:13.013Z,41.50
2018-03-23T13:41:17.644Z,20.00
2018-03-23T13:42:22.381Z,21.50
2018-03-23T13:43:27.121Z,37.50
2018-03-23T13:44:32.058Z,40.00
2018-03-23T13:45:37.534Z,37.00
2018-03-23T13:46:42.129Z,21.50
2018-03-23T13:47:46.959Z,24.50
2018-03-23T13:48:52.474Z,33.50
2018-03-23T13:49:57.407Z,34.00
2018-03-23T13:51:02.134Z,34.50
2018-03-23T13:52:06.791Z,30.50
2018-03-23T13:53:11.916Z,37.50
2018-03-23T13:54:16.619Z,32.00
2018-03-23T13:55:21.339Z,24.00
2018-03-23T13:56:25.935Z,34.50
2018-03-23T13:57:30.563Z,27.00
2018-03-23T13:58:39.609Z,36.50
2018-03-23T14:00:19.369Z,36.00
2018-03-23T14:01:28.268Z,30.50
2018-03-23T14:02:33.184Z,30.00
2018-03-23T14:03:38.298Z,25.50
2018-03-23T14:04:43.305Z,19.50
2018-03-23T14:05:48.473Z,28.00
2018-03-23T14:06:53.155Z,34.00
2018-03-23T14:07:57.942Z,33.50